Time;durP1;ratioP1;P1;durP2;ratioP2;P2;SDS_P1;SDS_P2;PMS_P1;PMS_P2;Temp;Humidity;BMP_temperature;BMP_pressure;BME280_temperature;BME280_humidity;BME280_pressure;Samples;Min_cycle;Max_cycle;Signal;HPM_P1;HPM_P2
2022/04/27 00:00:39;;;;;;;8.20;4.10;;;;;;;12.39;53.03;98977.56;5060338;28;20498;-84
2022/04/27 00:03:06;;;;;;;10.80;4.85;;;;;;;12.31;53.04;98981.16;5060692;28;20309;-88
2022/04/27 00:05:33;;;;;;;10.38;4.05;;;;;;;12.18;53.38;98958.34;5044097;28;20052;-84
2022/04/27 00:07:59;;;;;;;9.00;4.50;;;;;;;12.26;53.49;98984.09;5057582;28;20036;-86
2022/04/27 00:10:26;;;;;;;18.00;4.30;;;;;;;12.21;53.38;98988.63;5060803;28;20041;-85
2022/04/27 00:12:52;;;;;;;9.23;4.28;;;;;;;12.21;53.43;98983.13;5044607;28;20067;-85
2022/04/27 00:15:25;;;;;;;10.15;3.72;;;;;;;12.12;53.73;98976.09;5059560;28;20088;-86
2022/04/27 00:17:51;;;;;;;8.27;3.85;;;;;;;12.07;53.82;98985.31;5059521;28;20171;-87
2022/04/27 00:20:18;;;;;;;9.18;4.15;;;;;;;12.09;53.78;99002.25;5040019;28;20041;-88
2022/04/27 00:22:45;;;;;;;11.40;3.22;;;;;;;11.92;54.55;98996.84;5058201;28;20045;-86
2022/04/27 00:25:11;;;;;;;7.57;3.50;;;;;;;11.94;54.60;99000.06;5042227;28;20041;-87
2022/04/27 00:27:38;;;;;;;13.68;3.58;;;;;;;11.83;54.59;98987.84;5060093;28;20510;-91
2022/04/27 00:30:05;;;;;;;10.25;3.20;;;;;;;11.87;55.03;99013.47;5059013;28;20039;-88
2022/04/27 00:32:34;;;;;;;11.13;2.90;;;;;;;11.58;55.85;98995.03;5061125;28;20048;-87
2022/04/27 00:35:01;;;;;;;9.57;2.83;;;;;;;11.33;56.45;98975.63;5060422;28;20045;-94
2022/04/27 00:37:28;;;;;;;8.98;2.78;;;;;;;11.46;56.94;99021.16;5024860;28;20516;-86
2022/04/27 00:39:55;;;;;;;9.90;3.53;;;;;;;11.33;57.23;99002.19;5059657;28;20078;-84
2022/04/27 00:42:23;;;;;;;6.75;3.28;;;;;;;11.34;56.95;98998.31;5059302;28;20477;-85
2022/04/27 00:44:49;;;;;;;9.15;3.60;;;;;;;11.34;57.08;98988.16;5059816;28;20072;-85
2022/04/27 00:47:17;;;;;;;10.35;3.00;;;;;;;11.57;56.85;99032.53;5060256;28;20045;-85
2022/04/27 00:49:50;;;;;;;4.45;2.60;;;;;;;11.43;57.06;99029.22;5058096;28;20037;-87
2022/04/27 00:52:16;;;;;;;8.20;2.45;;;;;;;11.23;56.99;99008.81;5057622;28;20032;-86
2022/04/27 00:54:46;;;;;;;6.32;2.38;;;;;;;11.31;57.09;99018.13;5057621;28;20048;-86
2022/04/27 00:57:13;;;;;;;5.18;2.58;;;;;;;11.44;57.04;99036.28;5059052;28;20040;-89
2022/04/27 00:59:40;;;;;;;5.22;2.33;;;;;;;11.20;57.04;98993.03;5055567;28;20045;-93
2022/04/27 01:02:07;;;;;;;11.13;2.60;;;;;;;11.37;57.36;99011.34;5056143;28;20049;-86
2022/04/27 01:04:35;;;;;;;11.00;2.92;;;;;;;11.42;56.69;99011.16;5054462;28;20047;-86
2022/04/27 01:07:03;;;;;;;5.90;2.67;;;;;;;11.23;57.19;99022.50;5041396;28;20051;-88
2022/04/27 01:09:31;;;;;;;6.80;2.58;;;;;;;11.12;57.63;99043.88;5062844;28;20045;-87
2022/04/27 01:11:59;;;;;;;6.40;2.75;;;;;;;10.99;57.60;99023.81;5033398;28;20053;-87
2022/04/27 01:14:26;;;;;;;9.15;2.40;;;;;;;11.06;57.85;99028.78;5037012;28;20071;-85
2022/04/27 01:16:57;;;;;;;8.30;2.50;;;;;;;11.08;57.93;99017.50;5041014;28;20498;-85
2022/04/27 01:19:26;;;;;;;5.47;2.70;;;;;;;11.07;58.11;99030.38;5025462;28;20280;-83
2022/04/27 01:21:55;;;;;;;6.88;2.50;;;;;;;11.09;58.83;99044.53;5050987;28;20049;-85
2022/04/27 01:24:26;;;;;;;4.72;2.15;;;;;;;11.12;58.71;99045.81;5057793;28;20110;-86
2022/04/27 01:26:53;;;;;;;10.52;2.50;;;;;;;11.12;58.53;99040.34;5055937;28;20056;-85
2022/04/27 01:29:22;;;;;;;6.70;2.03;;;;;;;10.95;58.61;99047.44;5056124;28;20120;-86
2022/04/27 01:31:50;;;;;;;5.93;2.47;;;;;;;10.78;58.81;99025.56;5020796;28;20041;-85
2022/04/27 01:34:17;;;;;;;2.63;2.05;;;;;;;10.89;58.88;99042.44;5056010;28;20052;-86
2022/04/27 01:36:44;;;;;;;4.82;2.00;;;;;;;10.87;59.18;99045.50;5055295;28;20102;-85
2022/04/27 01:39:10;;;;;;;3.45;2.53;;;;;;;10.57;59.38;99007.06;5056841;28;20045;-85
2022/04/27 01:41:37;;;;;;;3.47;2.20;;;;;;;10.58;59.13;99019.59;5055344;28;20064;-84
2022/04/27 01:44:04;;;;;;;;;;;;;;;10.84;59.43;99053.56;5057733;28;20288;-84
2022/04/27 01:46:31;;;;;;;7.72;2.20;;;;;;;10.60;59.47;99023.94;5058819;28;19920;-84
2022/04/27 01:48:59;;;;;;;3.60;2.30;;;;;;;10.71;59.98;99058.84;5056009;28;20041;-84
2022/04/27 01:54:15;;;;;;;5.80;2.22;;;;;;;10.49;60.60;99029.69;5055023;28;20048;-90
2022/04/27 01:56:49;;;;;;;3.83;1.92;;;;;;;10.64;60.05;99063.19;5055461;28;20060;-86
2022/04/27 01:59:16;;;;;;;5.65;2.20;;;;;;;10.64;60.68;99049.50;5055642;28;20032;-85
2022/04/27 02:01:43;;;;;;;3.70;2.30;;;;;;;10.66;59.95;99039.03;5038376;28;20037;-86
2022/04/27 02:04:10;;;;;;;9.25;2.25;;;;;;;10.63;60.00;99050.63;5056202;28;20098;-86
2022/04/27 02:06:38;;;;;;;3.80;2.30;;;;;;;10.74;60.49;99065.59;5055544;28;20047;-85
2022/04/27 02:09:13;;;;;;;6.10;2.50;;;;;;;10.64;60.22;99044.03;5056929;28;20051;-86
2022/04/27 02:11:46;;;;;;;4.47;1.98;;;;;;;10.61;60.11;99059.16;5050623;28;20041;-86
2022/04/27 02:14:12;;;;;;;7.93;2.38;;;;;;;10.61;60.10;99050.16;5042148;28;20044;-86
2022/04/27 02:16:40;;;;;;;12.32;2.50;;;;;;;10.72;60.22;99079.59;5054508;28;20056;-84
2022/04/27 02:19:17;;;;;;;4.70;2.10;;;;;;;10.74;60.25;99071.88;5039639;28;20535;-83
2022/04/27 02:21:47;;;;;;;4.55;2.40;;;;;;;10.70;60.10;99059.19;5055171;28;20051;-91
2022/04/27 02:24:16;;;;;;;4.05;2.25;;;;;;;10.69;60.10;99071.22;5055728;28;20056;-84
2022/04/27 02:26:43;;;;;;;9.02;2.53;;;;;;;10.57;60.38;99069.91;5055824;28;20496;-86
2022/04/27 02:29:10;;;;;;;5.65;2.40;;;;;;;10.69;60.52;99082.94;5055932;28;20045;-85
2022/04/27 02:31:37;;;;;;;4.50;2.33;;;;;;;10.63;60.39;99075.22;5054949;28;20045;-87
2022/04/27 02:34:03;;;;;;;5.87;2.63;;;;;;;10.69;60.34;99079.41;5058242;28;20048;-85
2022/04/27 02:36:32;;;;;;;4.25;2.58;;;;;;;10.76;60.16;99074.28;5038530;28;20072;-91
2022/04/27 02:38:58;;;;;;;7.90;2.30;;;;;;;10.66;60.53;99088.25;5037365;28;20037;-86
2022/04/27 02:41:26;;;;;;;6.88;2.75;;;;;;;10.56;61.11;99083.88;5036919;28;20502;-82
2022/04/27 02:43:54;;;;;;;7.22;2.50;;;;;;;10.63;61.11;99089.72;5051988;28;20140;-84
2022/04/27 02:46:21;;;;;;;8.93;2.83;;;;;;;10.64;60.84;99085.84;5051111;28;20397;-82
2022/04/27 02:51:54;;;;;;;9.52;2.67;;;;;;;10.54;61.18;99069.75;5056254;28;20037;-84
2022/04/27 02:54:26;;;;;;;7.68;2.63;;;;;;;10.59;60.95;99072.31;5054761;28;20100;-84
2022/04/27 02:57:00;;;;;;;10.60;3.22;;;;;;;10.62;61.11;99090.03;5054709;28;20055;-86
2022/04/27 02:59:28;;;;;;;8.50;2.42;;;;;;;10.62;61.29;99090.81;5056215;28;20056;-86
2022/04/27 03:01:55;;;;;;;4.55;2.53;;;;;;;10.61;61.47;99088.41;5039131;28;20045;-85
2022/04/27 03:04:21;;;;;;;9.70;3.00;;;;;;;10.47;61.62;99080.34;5058809;28;20036;-90
2022/04/27 03:06:47;;;;;;;5.97;2.80;;;;;;;10.60;61.94;99098.56;5061456;28;20043;-85
2022/04/27 03:09:15;;;;;;;16.40;2.95;;;;;;;10.32;62.82;99087.03;5045866;28;20033;-86
2022/04/27 03:11:42;;;;;;;6.05;2.30;;;;;;;10.29;63.61;99106.81;5040618;28;20037;-84
2022/04/27 03:14:28;;;;;;;9.63;3.00;;;;;;;10.03;64.37;99093.84;5033427;28;20049;-87
2022/04/27 03:16:56;;;;;;;3.83;2.38;;;;;;;10.07;64.15;99096.75;5028534;28;20037;-90
2022/04/27 03:19:23;;;;;;;6.75;3.05;;;;;;;9.98;64.57;99095.88;5063535;28;20064;-85
2022/04/27 03:21:53;;;;;;;5.38;2.60;;;;;;;9.89;65.11;99082.19;5045064;28;20516;-85
2022/04/27 03:24:22;;;;;;;8.00;2.92;;;;;;;9.92;64.79;99097.94;5060446;28;20036;-85
2022/04/27 03:26:49;;;;;;;11.55;3.33;;;;;;;10.08;64.53;99110.06;5064605;28;20093;-84
2022/04/27 03:29:19;;;;;;;8.63;3.78;;;;;;;9.98;64.42;99093.97;5045707;28;20464;-84
2022/04/27 03:31:51;;;;;;;6.57;3.30;;;;;;;10.12;64.42;99111.03;5062797;28;20049;-84
2022/04/27 03:34:17;;;;;;;6.55;2.90;;;;;;;10.05;64.21;99097.03;5046684;28;20061;-85
2022/04/27 03:36:45;;;;;;;16.60;3.30;;;;;;;10.16;64.16;99099.50;5047794;28;20041;-87
2022/04/27 03:39:14;;;;;;;7.88;3.10;;;;;;;10.17;63.81;99099.19;5064998;28;20045;-85
2022/04/27 03:41:43;;;;;;;10.77;3.08;;;;;;;10.30;64.26;99122.91;5031534;28;20044;-87
2022/04/27 03:44:09;;;;;;;10.68;3.28;;;;;;;10.44;63.72;99125.50;5061071;28;20068;-88
2022/04/27 03:46:36;;;;;;;18.90;3.25;;;;;;;10.43;63.70;99128.53;5064874;28;20041;-86
2022/04/27 03:49:03;;;;;;;6.45;3.05;;;;;;;10.38;63.69;99118.56;5046952;28;20421;-89
2022/04/27 03:51:31;;;;;;;7.35;3.05;;;;;;;10.25;63.59;99105.81;5052442;28;20044;-84
2022/04/27 03:54:00;;;;;;;20.35;3.63;;;;;;;10.32;63.59;99119.84;5063024;28;20109;-87
2022/04/27 03:56:26;;;;;;;10.77;3.70;;;;;;;10.33;63.91;99126.91;5060850;28;20045;-87
2022/04/27 03:58:55;;;;;;;8.48;3.42;;;;;;;10.32;63.91;99128.84;5044585;28;20041;-89
2022/04/27 04:01:24;;;;;;;19.98;4.00;;;;;;;10.34;64.05;99134.00;5040676;28;20036;-84
2022/04/27 04:03:58;;;;;;;5.03;3.22;;;;;;;10.31;63.72;99118.22;5070121;28;20045;-83
2022/04/27 04:06:26;;;;;;;8.32;3.40;;;;;;;10.47;63.97;99133.06;5050557;28;20037;-86
2022/04/27 04:08:54;;;;;;;8.35;3.10;;;;;;;10.32;63.82;99100.72;5068870;28;20041;-91
2022/04/27 04:11:22;;;;;;;15.18;3.95;;;;;;;10.30;64.64;99136.56;5052014;28;20086;-91
2022/04/27 04:14:16;;;;;;;5.80;3.40;;;;;;;10.24;64.68;99132.31;5058453;28;20051;-89
2022/04/27 04:16:54;;;;;;;7.40;3.72;;;;;;;10.31;64.75;99151.81;5067255;28;20116;-85
2022/04/27 04:19:28;;;;;;;10.30;3.30;;;;;;;10.30;64.72;99152.94;5043955;28;20421;-80
2022/04/27 04:22:06;;;;;;;43.38;6.30;;;;;;;10.02;64.85;99114.06;5061483;28;20064;-78
2022/04/27 04:28:29;;;;;;;7.38;3.85;;;;;;;10.25;64.91;99144.03;5058672;28;20040;-77
2022/04/27 04:30:18;;;;;;;46.72;4.75;;;;;;;10.30;65.16;99155.69;5045378;28;20510;-79
2022/04/27 04:32:51;;;;;;;12.75;4.13;;;;;;;10.12;64.94;99132.09;5062040;28;20060;-79
2022/04/27 04:35:41;;;;;;;8.90;4.05;;;;;;;10.19;65.36;99151.56;5061042;28;20076;-79
2022/04/27 04:38:09;;;;;;;11.55;4.63;;;;;;;10.21;65.15;99148.53;5057319;28;20095;-81
2022/04/27 04:40:35;;;;;;;14.95;4.45;;;;;;;10.42;64.76;99157.81;5060317;28;20087;-78
2022/04/27 04:43:02;;;;;;;8.77;4.10;;;;;;;10.50;64.28;99158.97;5040766;28;20047;-77
2022/04/27 04:45:29;;;;;;;10.23;4.55;;;;;;;10.11;64.18;99134.03;5039934;28;20048;-80
2022/04/27 04:48:13;;;;;;;10.93;4.57;;;;;;;10.29;64.48;99151.31;5056778;28;20045;-77
2022/04/27 04:51:01;;;;;;;21.42;5.03;;;;;;;10.22;64.35;99166.53;5053443;28;20041;-77
2022/04/27 04:53:54;;;;;;;16.48;5.13;;;;;;;10.28;64.63;99155.19;5039501;28;20049;-76
2022/04/27 04:56:34;;;;;;;14.43;5.07;;;;;;;10.31;64.51;99162.75;5035193;28;20041;-77
2022/04/27 04:59:19;;;;;;;17.67;5.25;;;;;;;10.29;64.67;99158.72;5038515;28;20557;-77
2022/04/27 05:02:02;;;;;;;10.70;4.88;;;;;;;10.38;63.49;99148.63;5023739;28;20090;-77
2022/04/27 05:04:50;;;;;;;9.77;5.03;;;;;;;10.54;63.42;99149.00;5037207;28;20052;-76
2022/04/27 05:07:46;;;;;;;9.88;4.68;;;;;;;10.70;62.41;99157.59;5051877;28;20097;-78
2022/04/27 05:10:37;;;;;;;14.15;5.13;;;;;;;10.52;62.84;99153.97;5040828;28;20071;-78
2022/04/27 05:13:14;;;;;;;12.40;4.70;;;;;;;10.75;62.04;99165.63;5036528;28;20040;-78
2022/04/27 05:15:59;;;;;;;10.20;4.00;;;;;;;10.69;60.63;99158.69;5052728;28;20057;-77
2022/04/27 05:18:44;;;;;;;36.65;5.20;;;;;;;10.71;59.43;99159.19;5054012;28;20094;-78
2022/04/27 05:21:29;;;;;;;14.90;4.10;;;;;;;10.93;59.65;99170.03;5050372;28;20090;-77
2022/04/27 05:24:14;;;;;;;18.00;4.05;;;;;;;10.87;58.61;99174.03;5050453;28;20048;-78
2022/04/27 05:27:08;;;;;;;11.98;4.82;;;;;;;10.86;58.62;99157.94;5049411;28;20041;-78
2022/04/27 05:33:07;;;;;;;33.13;7.15;;;;;;;10.89;58.24;99169.03;5050101;28;20073;-78
2022/04/27 05:35:43;;;;;;;37.08;5.88;;;;;;;10.94;58.65;99148.94;5050784;28;20040;-78
2022/04/27 05:38:28;;;;;;;25.45;4.47;;;;;;;11.23;58.12;99167.50;5049254;28;20067;-77
2022/04/27 05:41:12;;;;;;;41.08;7.05;;;;;;;11.42;58.46;99173.47;5033027;28;20131;-78
2022/04/27 05:43:42;;;;;;;41.10;7.07;;;;;;;11.41;57.20;99168.31;5047505;28;20079;-78
2022/04/27 05:46:34;;;;;;;32.33;5.60;;;;;;;11.42;58.03;99169.91;5041287;28;20036;-78
2022/04/27 05:49:34;;;;;;;17.30;4.53;;;;;;;11.44;57.61;99162.19;5046959;28;20040;-77
2022/04/27 05:52:56;;;;;;;29.77;5.53;;;;;;;11.57;57.24;99160.41;5048268;28;20569;-78
2022/04/27 05:55:52;;;;;;;11.00;5.32;;;;;;;11.91;56.43;99176.03;5050274;28;20052;-78
2022/04/27 05:58:43;;;;;;;17.05;4.65;;;;;;;12.05;55.87;99170.34;5049108;28;20037;-77
2022/04/27 06:01:53;;;;;;;;;;;;;;;;;;;;;
2022/04/27 06:04:27;;;;;;;17.33;4.38;;;;;;;11.98;55.31;99184.53;5048210;28;20056;-78
2022/04/27 06:07:20;;;;;;;19.05;4.50;;;;;;;12.01;55.05;99172.13;5049412;28;20063;-79
2022/04/27 06:10:18;;;;;;;16.20;4.07;;;;;;;12.18;54.98;99170.13;5068319;28;20525;-79
2022/04/27 06:13:27;;;;;;;29.45;6.25;;;;;;;12.16;53.17;99180.63;5052284;28;20040;-83
2022/04/27 06:17:24;;;;;;;25.27;4.47;;;;;;;12.14;50.79;99166.44;5067913;28;20130;-78
2022/04/27 06:20:25;;;;;;;28.00;4.50;;;;;;;12.40;50.82;99191.03;4917777;29;20039;-79
2022/04/27 06:23:00;;;;;;;11.43;3.78;;;;;;;12.25;50.02;99197.06;4944971;29;20070;-79
2022/04/27 06:25:57;;;;;;;19.75;4.18;;;;;;;12.23;49.85;99200.13;4928570;29;20070;-79
2022/04/27 06:28:38;;;;;;;40.05;4.82;;;;;;;12.30;49.92;99199.63;4946488;29;20057;-81
2022/04/27 06:31:12;;;;;;;49.25;6.97;;;;;;;12.22;49.53;99203.19;4927779;29;20051;-79
2022/04/27 06:33:40;;;;;;;20.05;4.63;;;;;;;12.32;49.51;99199.31;4929809;29;20535;-80
2022/04/27 06:36:09;;;;;;;15.68;4.15;;;;;;;12.35;46.62;99198.63;4948018;29;20180;-80
2022/04/27 06:38:35;;;;;;;12.40;4.30;;;;;;;12.37;45.76;99199.91;4930978;29;20476;-80
2022/04/27 06:41:11;;;;;;;8.02;2.80;;;;;;;12.29;45.72;99203.50;4928592;29;20138;-80
2022/04/27 06:44:00;;;;;;;8.32;3.00;;;;;;;12.32;46.00;99202.84;4927813;29;20513;-79
2022/04/27 06:46:46;;;;;;;6.30;3.15;;;;;;;12.32;46.86;99200.09;4947803;29;20043;-78
2022/04/27 06:49:30;;;;;;;19.63;4.82;;;;;;;12.48;46.11;99196.81;4944202;29;20090;-77
2022/04/27 06:52:17;;;;;;;10.43;3.75;;;;;;;12.35;45.54;99169.31;4942455;29;20058;-76
2022/04/27 06:55:06;;;;;;;16.48;3.45;;;;;;;12.52;45.30;99193.09;4942944;29;20039;-76
2022/04/27 06:57:52;;;;;;;28.75;4.72;;;;;;;12.53;45.42;99186.47;5034566;28;20045;-76
2022/04/27 07:00:26;;;;;;;30.15;4.78;;;;;;;12.69;44.85;99195.75;5045273;28;20044;-77
2022/04/27 07:02:57;;;;;;;21.55;3.88;;;;;;;12.68;44.30;99198.81;5043357;28;20153;-76
2022/04/27 07:05:33;;;;;;;27.50;4.55;;;;;;;12.91;43.16;99200.19;5044835;28;20413;-77
2022/04/27 07:08:00;;;;;;;26.52;4.55;;;;;;;12.94;42.81;99195.94;5041190;28;20045;-74
2022/04/27 07:10:36;;;;;;;26.75;4.30;;;;;;;13.17;42.48;99204.69;5007152;28;20051;-75
2022/04/27 07:13:04;;;;;;;17.40;3.50;;;;;;;13.01;42.21;99203.66;5041801;28;20137;-76
2022/04/27 07:15:30;;;;;;;15.73;4.03;;;;;;;13.07;42.47;99203.13;5039119;28;20186;-76
2022/04/27 07:17:58;;;;;;;21.75;4.10;;;;;;;13.05;42.60;99201.88;5021331;28;20170;-75
2022/04/27 07:20:24;;;;;;;10.23;3.75;;;;;;;13.05;42.21;99190.91;5040319;28;20310;-76
2022/04/27 07:22:53;;;;;;;20.38;4.28;;;;;;;13.19;42.78;99212.59;5022654;28;20045;-75
2022/04/27 07:25:19;;;;;;;13.38;4.13;;;;;;;13.24;42.23;99202.25;5040083;28;20426;-76
2022/04/27 07:27:47;;;;;;;18.88;5.22;;;;;;;13.17;42.77;99204.69;5022210;28;20067;-75
2022/04/27 07:30:14;;;;;;;15.82;3.63;;;;;;;12.83;44.00;99214.72;5040466;28;20056;-77
2022/04/27 07:32:42;;;;;;;15.38;4.03;;;;;;;12.82;44.29;99201.34;5034694;28;20167;-76
2022/04/27 07:35:08;;;;;;;15.57;4.28;;;;;;;13.01;44.46;99209.16;5036012;28;20556;-77
2022/04/27 07:37:38;;;;;;;23.75;4.80;;;;;;;13.34;45.74;99201.88;5051140;28;20399;-77
2022/04/27 07:40:11;;;;;;;14.65;5.07;;;;;;;13.46;43.01;99203.09;5051749;28;20072;-76
2022/04/27 07:42:39;;;;;;;127.35;49.67;;;;;;;13.49;43.36;99203.22;5051791;28;20045;-74
2022/04/27 07:45:15;;;;;;;20.08;4.55;;;;;;;13.61;43.49;99208.78;5051483;28;20045;-77
2022/04/27 07:47:45;;;;;;;7.15;3.65;;;;;;;13.45;41.88;99212.47;5053033;28;20094;-76
2022/04/27 07:50:18;;;;;;;15.85;3.88;;;;;;;13.52;42.05;99220.97;5052229;28;20048;-76
2022/04/27 07:52:45;;;;;;;10.38;3.13;;;;;;;13.24;41.66;99229.69;5053732;28;20068;-76
2022/04/27 07:55:12;;;;;;;31.73;11.55;;;;;;;13.31;41.98;99218.19;5056280;28;20037;-77
2022/04/27 07:57:39;;;;;;;;;;;;;;;13.44;41.86;99221.81;5055460;28;20719;-77
2022/04/27 08:00:06;;;;;;;;;;;;;;;13.35;41.51;99221.91;5053638;28;19920;-77
2022/04/27 08:02:41;;;;;;;467.13;224.48;;;;;;;13.48;42.34;99220.03;5054407;28;19948;-76
2022/04/27 08:05:09;;;;;;;35.45;12.23;;;;;;;13.62;41.76;99204.88;5055553;28;20048;-77
2022/04/27 08:07:40;;;;;;;20.80;5.68;;;;;;;13.74;41.57;99214.31;5054616;28;20041;-76
2022/04/27 08:10:14;;;;;;;18.33;3.97;;;;;;;13.68;40.89;99205.50;5056011;28;20503;-76
2022/04/27 08:12:44;;;;;;;32.95;9.73;;;;;;;13.73;40.72;99221.75;5055015;28;20049;-76
2022/04/27 08:15:10;;;;;;;16.73;4.13;;;;;;;13.74;40.67;99217.88;5054501;28;20072;-77
2022/04/27 08:17:51;;;;;;;23.45;4.63;;;;;;;13.77;41.17;99211.69;5055062;28;20072;-79
2022/04/27 08:23:10;;;;;;;117.70;38.92;;;;;;;14.01;41.71;99200.00;5056313;28;20045;-77
2022/04/27 08:25:37;;;;;;;22.80;8.57;;;;;;;14.07;41.01;99214.31;5057047;28;20525;-76
2022/04/27 08:28:08;;;;;;;22.02;5.30;;;;;;;13.88;41.72;99203.84;5056208;28;20029;-76
2022/04/27 08:30:37;;;;;;;42.70;6.45;;;;;;;13.98;41.08;99211.69;5054694;28;20044;-77
2022/04/27 08:33:05;;;;;;;21.60;6.43;;;;;;;14.20;41.99;99210.47;5056044;28;20079;-76
2022/04/27 08:35:33;;;;;;;16.67;4.03;;;;;;;14.42;40.58;99205.72;5054562;28;20411;-77
2022/04/27 08:38:00;;;;;;;242.75;64.43;;;;;;;14.79;39.97;99203.84;5054517;28;20175;-77
2022/04/27 08:40:26;;;;;;;;;;;;;;;14.73;37.99;99206.00;5054374;28;20086;-76
2022/04/27 08:42:53;;;;;;;26.80;4.35;;;;;;;14.74;37.81;99202.13;5054119;28;19920;-76
2022/04/27 08:45:21;;;;;;;37.67;4.72;;;;;;;14.59;37.16;99197.28;5054607;28;20044;-76
2022/04/27 08:47:49;;;;;;;20.30;5.80;;;;;;;14.54;37.44;99208.53;5054795;28;20037;-76
2022/04/27 08:50:20;;;;;;;22.23;4.90;;;;;;;14.42;40.65;99194.72;5054226;28;20556;-76
2022/04/27 08:52:48;;;;;;;23.20;5.28;;;;;;;14.56;38.75;99212.53;5054896;28;20048;-76
2022/04/27 08:55:15;;;;;;;29.20;4.72;;;;;;;14.49;38.80;99204.00;5053516;28;20044;-77
2022/04/27 08:57:45;;;;;;;15.70;4.85;;;;;;;14.52;39.51;99202.56;5041509;28;20033;-77
2022/04/27 09:00:20;;;;;;;16.65;4.30;;;;;;;14.41;39.20;99207.69;5036856;28;20045;-77
2022/04/27 09:02:48;;;;;;;13.32;4.25;;;;;;;14.10;39.92;99208.16;5045784;28;20048;-76
2022/04/27 09:05:17;;;;;;;12.50;4.00;;;;;;;14.00;40.03;99203.09;5055812;28;20041;-78
2022/04/27 09:07:45;;;;;;;19.35;5.38;;;;;;;14.05;39.50;99200.13;5045728;28;20040;-78
2022/04/27 09:10:14;;;;;;;12.10;5.13;;;;;;;14.10;39.66;99208.16;5053585;28;20098;-76
2022/04/27 09:12:46;;;;;;;17.00;5.03;;;;;;;14.10;40.06;99211.72;5045025;28;20048;-77
2022/04/27 09:15:14;;;;;;;17.90;3.75;;;;;;;13.87;39.41;99210.47;5052633;28;20058;-77
2022/04/27 09:23:25;;;;;;;26.60;5.13;;;;;;;13.92;40.47;99215.78;5045011;28;20045;-77
2022/04/27 09:25:55;;;;;;;28.00;5.20;;;;;;;14.06;40.75;99215.47;5052228;28;20513;-78
2022/04/27 09:28:23;;;;;;;42.92;6.95;;;;;;;14.21;39.91;99216.81;5012006;28;20049;-77
2022/04/27 09:30:50;;;;;;;16.83;4.20;;;;;;;14.12;39.36;99218.81;5054698;28;20040;-77
2022/04/27 09:33:30;;;;;;;21.38;4.70;;;;;;;14.15;39.43;99227.19;5054146;28;20041;-77
2022/04/27 09:35:58;;;;;;;21.02;4.20;;;;;;;13.92;39.61;99218.53;5053910;28;20032;-77
2022/04/27 09:38:23;;;;;;;;;;;;;;;13.80;39.93;99222.00;5053795;28;20048;-78
2022/04/27 09:40:54;;;;;;;11.43;3.43;;;;;;;13.68;40.51;99230.22;5053442;28;20405;-77
2022/04/27 09:43:55;;;;;;;32.50;5.82;;;;;;;13.36;41.50;99231.75;5055055;28;20045;-79
2022/04/27 09:46:22;;;;;;;30.98;6.30;;;;;;;13.23;42.53;99241.00;5033195;28;20064;-77
2022/04/27 09:49:08;;;;;;;;;;;;;;;13.21;43.12;99238.59;5016290;28;20060;-76
2022/04/27 09:51:36;;;;;;;28.80;4.85;;;;;;;13.17;44.09;99238.44;5032936;28;19929;-77
2022/04/27 09:54:04;;;;;;;14.48;4.38;;;;;;;13.03;45.15;99242.56;5032100;28;20088;-77
2022/04/27 09:56:37;;;;;;;26.52;4.72;;;;;;;12.91;45.56;99249.56;5032289;28;20076;-77
2022/04/27 09:59:07;;;;;;;37.42;4.55;;;;;;;12.83;46.08;99250.41;5033976;28;20065;-77
2022/04/27 10:01:35;;;;;;;31.23;5.28;;;;;;;12.94;45.86;99261.81;5032038;28;20537;-77
2022/04/27 10:04:06;;;;;;;34.00;5.10;;;;;;;12.98;45.49;99264.69;5017012;28;20164;-76
2022/04/27 10:06:37;;;;;;;19.23;4.20;;;;;;;12.95;44.97;99266.19;5035024;28;20045;-79
2022/04/27 10:09:04;;;;;;;9.52;4.03;;;;;;;12.88;45.45;99266.69;5035729;28;20052;-77
2022/04/27 10:11:33;;;;;;;;;;;;;;;12.96;45.54;99266.97;5035754;28;20037;-79
2022/04/27 10:14:00;;;;;;;20.17;5.05;;;;;;;13.06;45.19;99261.09;5014544;28;20404;-78
2022/04/27 10:16:28;;;;;;;12.50;3.88;;;;;;;13.22;44.62;99255.88;5032797;28;20565;-76
2022/04/27 10:18:54;;;;;;;12.65;3.83;;;;;;;13.48;44.40;99281.25;5032932;28;20049;-76
2022/04/27 10:21:57;;;;;;;26.88;3.92;;;;;;;13.53;43.30;99266.50;5051795;28;20052;-77
2022/04/27 10:24:37;;;;;;;14.07;3.85;;;;;;;13.64;44.16;99278.69;5053174;28;20057;-76
2022/04/27 10:27:34;;;;;;;8.88;3.55;;;;;;;13.77;43.44;99276.81;5056754;28;20041;-76
2022/04/27 10:30:03;;;;;;;11.15;3.63;;;;;;;13.65;43.74;99288.56;5056481;28;20041;-77
2022/04/27 10:32:51;;;;;;;7.43;3.60;;;;;;;13.65;44.46;99291.31;5055051;28;20051;-76
2022/04/27 10:35:22;;;;;;;9.48;4.35;;;;;;;13.66;44.02;99292.13;5053933;28;20056;-75
2022/04/27 10:37:48;;;;;;;12.70;3.80;;;;;;;13.75;44.01;99285.41;5057373;28;20506;-76
2022/04/27 10:40:41;;;;;;;7.70;4.20;;;;;;;13.71;44.44;99294.66;5056397;28;20130;-77
2022/04/27 10:43:09;;;;;;;11.27;4.07;;;;;;;13.82;44.58;99293.13;5053146;28;20060;-77
2022/04/27 10:45:43;;;;;;;12.93;4.25;;;;;;;13.89;43.98;99295.34;5053085;28;20036;-77
2022/04/27 10:48:20;;;;;;;14.65;4.35;;;;;;;13.77;43.36;99288.63;5051572;28;20045;-77
2022/04/27 10:51:01;;;;;;;11.63;3.92;;;;;;;13.74;43.27;99292.06;5053783;28;20043;-77
2022/04/27 10:53:30;;;;;;;7.00;3.40;;;;;;;13.71;43.88;99289.97;5054361;28;20040;-75
2022/04/27 10:55:58;;;;;;;6.03;3.40;;;;;;;13.75;43.48;99296.41;5051754;28;20120;-78
2022/04/27 10:58:36;;;;;;;15.30;3.92;;;;;;;13.85;43.67;99298.75;5053522;28;20411;-77
2022/04/27 11:01:11;;;;;;;11.55;4.20;;;;;;;13.93;43.97;99304.50;5055208;28;20087;-81
2022/04/27 11:03:39;;;;;;;7.60;3.63;;;;;;;13.75;45.38;99310.16;5052028;28;20048;-79
2022/04/27 11:06:13;;;;;;;19.50;4.10;;;;;;;13.77;45.65;99312.53;5051907;28;20120;-79
2022/04/27 11:09:00;;;;;;;7.05;3.38;;;;;;;13.74;45.82;99314.03;5049949;28;20044;-77
2022/04/27 11:11:34;;;;;;;8.50;4.03;;;;;;;13.88;45.22;99321.22;5051462;28;20111;-77
2022/04/27 11:14:09;;;;;;;7.35;3.35;;;;;;;13.89;45.77;99314.56;5050753;28;20099;-78
2022/04/27 11:16:51;;;;;;;14.00;3.70;;;;;;;13.99;46.00;99311.41;5050725;28;20102;-78
2022/04/27 11:19:18;;;;;;;9.15;3.92;;;;;;;14.10;46.41;99298.88;5051107;28;20057;-77
2022/04/27 11:21:45;;;;;;;6.78;3.20;;;;;;;14.31;46.12;99304.34;5049477;28;20095;-77
2022/04/27 11:24:13;;;;;;;11.32;3.47;;;;;;;14.33;44.72;99305.59;5049674;28;20045;-78
2022/04/27 11:26:49;;;;;;;9.95;4.30;;;;;;;14.27;44.83;99303.41;5035315;28;20044;-77
2022/04/27 11:29:20;;;;;;;;;;;;;;;14.31;45.74;99309.84;5055001;28;20048;-77
2022/04/27 11:31:47;;;;;;;14.63;6.47;;;;;;;14.09;45.73;99302.75;5053301;28;20369;-78
2022/04/27 11:34:21;;;;;;;15.02;4.97;;;;;;;14.23;46.47;99313.47;5055205;28;20517;-77
2022/04/27 11:36:57;;;;;;;13.65;3.53;;;;;;;14.25;45.10;99302.94;5052527;28;20069;-75
2022/04/27 11:39:26;;;;;;;7.78;3.30;;;;;;;14.25;43.63;99313.94;5034690;28;20406;-79
2022/04/27 11:42:03;;;;;;;9.90;2.70;;;;;;;14.15;43.67;99309.66;5051169;28;20045;-76
2022/04/27 11:44:34;;;;;;;7.80;3.05;;;;;;;14.00;41.76;99313.81;5051898;28;20044;-78
2022/04/27 11:47:05;;;;;;;8.52;3.10;;;;;;;13.75;44.11;99329.38;5052140;28;20501;-76
2022/04/27 11:49:37;;;;;;;15.40;2.97;;;;;;;13.31;47.09;99336.25;5053371;28;20124;-78
2022/04/27 11:52:16;;;;;;;27.55;2.78;;;;;;;12.78;49.14;99338.38;5052547;28;20206;-77
2022/04/27 11:54:45;;;;;;;8.45;2.25;;;;;;;12.36;51.22;99345.53;5051680;28;20044;-78
2022/04/27 11:57:20;;;;;;;8.48;2.90;;;;;;;12.21;53.60;99377.78;5034953;28;20079;-76
2022/04/27 11:59:49;;;;;;;7.85;2.47;;;;;;;11.85;55.98;99371.78;5050061;28;20033;-78
2022/04/27 12:02:23;;;;;;;17.23;3.78;;;;;;;11.66;57.82;99378.34;5051001;28;20220;-77
2022/04/27 12:04:51;;;;;;;19.88;3.13;;;;;;;11.37;58.24;99389.84;5017110;28;20041;-77
2022/04/27 12:07:22;;;;;;;6.68;2.85;;;;;;;11.40;60.53;99399.34;5052960;28;20049;-77
2022/04/27 12:10:14;;;;;;;9.35;3.45;;;;;;;11.18;60.87;99395.53;5050698;28;20041;-78
2022/04/27 12:12:41;;;;;;;3.40;2.30;;;;;;;11.18;59.55;99403.75;5050651;28;20049;-78
2022/04/27 12:15:11;;;;;;;6.93;2.30;;;;;;;11.03;60.20;99406.91;5058900;28;20041;-78
2022/04/27 12:17:45;;;;;;;4.38;1.90;;;;;;;10.74;54.57;99375.34;5049956;28;20572;-78
2022/04/27 12:20:29;;;;;;;3.65;1.65;;;;;;;11.07;58.58;99399.69;5047180;28;20429;-78